createdAt,value
2018-06-03T00:01:12.803Z,22.40
2018-06-03T00:03:40.248Z,22.40
2018-06-03T00:06:07.720Z,22.50
2018-06-03T00:08:35.214Z,22.40
2018-06-03T00:11:02.687Z,22.40
2018-06-03T00:13:30.911Z,22.30
2018-06-03T00:15:58.408Z,22.30
2018-06-03T00:18:26.676Z,22.30
2018-06-03T00:24:37.547Z,22.30
2018-06-03T00:27:06.009Z,22.30
2018-06-03T00:29:34.397Z,22.20
2018-06-03T00:32:02.819Z,22.30
2018-06-03T00:34:31.215Z,22.20
2018-06-03T00:36:59.552Z,22.20
2018-06-03T00:39:27.945Z,22.20
2018-06-03T00:41:56.330Z,22.10
2018-06-03T00:44:31.407Z,22.10
2018-06-03T00:46:59.983Z,22.10
2018-06-03T00:49:28.331Z,22.10
2018-06-03T00:51:56.745Z,22.10
2018-06-03T00:54:25.143Z,22.00
2018-06-03T00:57:04.835Z,22.00
2018-06-03T00:59:33.378Z,22.00
2018-06-03T01:02:01.941Z,21.90
2018-06-03T01:04:30.369Z,21.90
2018-06-03T01:06:58.697Z,21.90
2018-06-03T01:09:27.140Z,21.90
2018-06-03T01:11:55.538Z,21.80
2018-06-03T01:14:24.064Z,21.80
2018-06-03T01:16:52.400Z,21.90
2018-06-03T01:19:20.927Z,21.80
2018-06-03T01:21:49.268Z,21.80
2018-06-03T01:24:17.716Z,21.80
2018-06-03T01:26:46.062Z,21.80
2018-06-03T01:29:14.510Z,21.80
2018-06-03T01:31:42.891Z,21.80
2018-06-03T01:34:11.278Z,21.70
2018-06-03T01:36:39.692Z,21.70
2018-06-03T01:39:08.066Z,21.70
2018-06-03T01:44:04.831Z,21.60
2018-06-03T01:46:33.167Z,21.60
2018-06-03T01:49:01.555Z,21.60
2018-06-03T01:51:29.926Z,21.60
2018-06-03T01:53:58.351Z,21.60
2018-06-03T01:56:26.716Z,21.60
2018-06-03T01:58:55.090Z,21.50
2018-06-03T02:01:23.414Z,21.50
2018-06-03T02:03:51.919Z,21.40
2018-06-03T02:06:20.311Z,21.40
2018-06-03T02:08:48.810Z,21.40
2018-06-03T02:11:17.149Z,21.30
2018-06-03T02:13:45.544Z,21.30
2018-06-03T02:16:14.056Z,21.30
2018-06-03T02:18:42.406Z,21.30
2018-06-03T02:21:11.084Z,21.30
2018-06-03T02:23:39.425Z,21.30
2018-06-03T02:26:07.793Z,21.20
2018-06-03T02:28:36.158Z,21.20
2018-06-03T02:31:04.605Z,21.20
2018-06-03T02:33:33.003Z,21.10
2018-06-03T02:36:01.482Z,21.20
2018-06-03T02:38:30.020Z,21.20
2018-06-03T02:40:58.457Z,21.20
2018-06-03T02:43:26.970Z,21.20
2018-06-03T02:45:55.400Z,21.10
2018-06-03T02:48:23.727Z,21.10
2018-06-03T02:50:52.079Z,21.10
2018-06-03T02:53:20.424Z,21.10
2018-06-03T02:58:16.864Z,21.00
2018-06-03T03:00:45.264Z,21.00
2018-06-03T03:03:13.697Z,21.00
2018-06-03T03:05:42.034Z,21.00
2018-06-03T03:08:10.422Z,21.00
2018-06-03T03:10:38.759Z,21.00
2018-06-03T03:13:07.119Z,21.00
2018-06-03T03:15:35.443Z,21.00
2018-06-03T03:18:03.798Z,21.00
2018-06-03T03:20:32.179Z,21.00
2018-06-03T03:23:00.557Z,20.90
2018-06-03T03:25:28.890Z,20.90
2018-06-03T03:27:57.270Z,20.90
2018-06-03T03:30:25.662Z,20.90
2018-06-03T03:32:54.183Z,20.80
2018-06-03T03:35:22.529Z,20.90
2018-06-03T03:37:50.925Z,20.80
2018-06-03T03:40:19.353Z,20.80
2018-06-03T03:42:47.728Z,20.80
2018-06-03T03:45:16.151Z,20.80
2018-06-03T03:47:44.477Z,20.80
2018-06-03T03:50:12.934Z,20.80
2018-06-03T03:52:41.318Z,20.70
2018-06-03T03:55:09.654Z,20.70
2018-06-03T03:57:38.077Z,20.70
2018-06-03T04:00:06.527Z,20.80
2018-06-03T04:02:34.917Z,20.80
2018-06-03T04:05:03.277Z,20.80
2018-06-03T04:07:31.614Z,20.80
2018-06-03T04:09:59.996Z,20.80
2018-06-03T04:12:28.318Z,20.70
2018-06-03T04:14:56.874Z,20.70
2018-06-03T04:17:25.219Z,20.70
2018-06-03T04:19:53.610Z,20.70
2018-06-03T04:22:22.054Z,20.70
2018-06-03T04:24:50.435Z,20.80
2018-06-03T04:27:18.899Z,20.80
2018-06-03T04:29:47.250Z,20.80
2018-06-03T04:32:15.623Z,20.80
2018-06-03T04:34:44.023Z,20.90
2018-06-03T04:37:12.470Z,21.00
2018-06-03T04:39:40.886Z,21.10
2018-06-03T04:42:09.239Z,21.10
2018-06-03T04:44:37.614Z,21.10
2018-06-03T04:47:06.220Z,21.20
2018-06-03T04:49:34.605Z,21.10
2018-06-03T04:52:02.976Z,21.20
2018-06-03T04:54:31.330Z,21.10
2018-06-03T04:56:59.816Z,21.20
2018-06-03T04:59:28.190Z,21.30
2018-06-03T05:01:56.542Z,21.30
2018-06-03T05:04:24.950Z,21.30
2018-06-03T05:06:53.282Z,21.40
2018-06-03T05:09:21.694Z,21.40
2018-06-03T05:11:50.064Z,21.40
2018-06-03T05:14:18.406Z,21.50
2018-06-03T05:16:46.839Z,21.50
2018-06-03T05:19:15.201Z,21.60
2018-06-03T05:21:43.585Z,21.60
2018-06-03T05:24:11.990Z,21.60
2018-06-03T05:26:40.505Z,21.70
2018-06-03T05:29:09.092Z,21.70
2018-06-03T05:31:37.546Z,21.70
2018-06-03T05:34:06.250Z,21.70
2018-06-03T05:36:34.663Z,21.80
2018-06-03T05:39:03.289Z,21.90
2018-06-03T05:41:31.795Z,21.90
2018-06-03T05:44:00.218Z,21.90
2018-06-03T05:46:28.599Z,22.00
2018-06-03T05:48:56.961Z,22.00
2018-06-03T05:51:25.415Z,22.00
2018-06-03T05:53:53.774Z,22.00
2018-06-03T05:56:22.267Z,22.00
2018-06-03T05:58:50.653Z,22.00
2018-06-03T06:01:19.127Z,22.00
2018-06-03T06:03:47.494Z,22.00
2018-06-03T06:06:15.863Z,22.10
2018-06-03T06:08:44.253Z,22.10
2018-06-03T06:11:12.602Z,22.20
2018-06-03T06:13:41.081Z,22.20
2018-06-03T06:16:09.495Z,22.20
2018-06-03T06:18:37.889Z,22.30
2018-06-03T06:21:06.281Z,22.30
2018-06-03T06:23:34.677Z,22.30
2018-06-03T06:26:03.080Z,22.40
2018-06-03T06:28:31.471Z,22.40
2018-06-03T06:30:59.943Z,22.50
2018-06-03T06:33:28.344Z,22.50
2018-06-03T06:36:03.206Z,22.50
2018-06-03T06:38:31.606Z,22.50
2018-06-03T06:41:00.109Z,22.60
2018-06-03T06:43:28.688Z,22.60
2018-06-03T06:45:57.078Z,22.60
2018-06-03T06:48:25.438Z,22.70
2018-06-03T06:50:53.940Z,22.80
2018-06-03T06:53:22.342Z,22.80
2018-06-03T06:55:50.703Z,22.80
2018-06-03T06:58:19.097Z,22.80
2018-06-03T07:00:47.478Z,22.90
2018-06-03T07:03:15.898Z,22.90
2018-06-03T07:05:44.324Z,22.90
2018-06-03T07:08:12.693Z,22.90
2018-06-03T07:10:41.141Z,23.00
2018-06-03T07:13:09.578Z,23.00
2018-06-03T07:15:38.000Z,23.10
2018-06-03T07:18:06.492Z,23.10
2018-06-03T07:20:35.020Z,23.10
2018-06-03T07:23:03.466Z,23.10
2018-06-03T07:25:31.947Z,23.10
2018-06-03T07:28:00.339Z,23.20
2018-06-03T07:30:28.811Z,23.20
2018-06-03T07:32:57.180Z,23.20
2018-06-03T07:35:25.576Z,23.30
2018-06-03T07:37:54.085Z,23.30
2018-06-03T07:40:22.537Z,23.30
2018-06-03T07:42:51.017Z,23.40
2018-06-03T07:45:19.429Z,23.40
2018-06-03T07:47:47.860Z,23.40
2018-06-03T07:50:16.229Z,23.50
2018-06-03T07:52:44.570Z,23.50
2018-06-03T07:55:12.959Z,23.50
2018-06-03T07:57:41.490Z,23.50
2018-06-03T08:00:10.054Z,23.50
2018-06-03T08:02:38.562Z,23.60
2018-06-03T08:05:07.022Z,23.60
2018-06-03T08:07:35.605Z,23.60
2018-06-03T08:10:04.090Z,23.60
2018-06-03T08:12:32.508Z,23.60
2018-06-03T08:15:00.939Z,23.60
2018-06-03T08:17:29.309Z,23.70
2018-06-03T08:19:57.697Z,23.70
2018-06-03T08:22:26.269Z,23.80
2018-06-03T08:24:54.675Z,23.80
2018-06-03T08:27:23.237Z,23.80
2018-06-03T08:29:51.718Z,23.80
2018-06-03T08:32:20.210Z,23.80
2018-06-03T08:34:48.691Z,23.80
2018-06-03T08:37:17.165Z,23.90
2018-06-03T08:39:45.495Z,23.90
2018-06-03T08:44:42.166Z,24.00
2018-06-03T08:47:10.519Z,24.00
2018-06-03T08:49:39.013Z,24.10
2018-06-03T08:52:07.554Z,24.00
2018-06-03T08:54:35.932Z,24.10
2018-06-03T08:57:04.501Z,24.10
2018-06-03T08:59:32.934Z,24.10
2018-06-03T09:02:01.368Z,24.20
2018-06-03T09:04:29.810Z,24.20
2018-06-03T09:06:58.328Z,24.20
2018-06-03T09:09:26.874Z,24.20
2018-06-03T09:11:55.461Z,24.20
2018-06-03T09:14:23.862Z,24.30
2018-06-03T09:16:52.371Z,24.30
2018-06-03T09:19:20.753Z,24.30
2018-06-03T09:21:49.523Z,24.40
2018-06-03T09:24:17.964Z,24.50
2018-06-03T09:26:46.531Z,24.50
2018-06-03T09:29:14.948Z,24.50
2018-06-03T09:31:43.447Z,24.50
2018-06-03T09:34:11.845Z,24.60
2018-06-03T09:36:40.485Z,24.60
2018-06-03T09:39:09.321Z,24.60
2018-06-03T09:41:37.962Z,24.70
2018-06-03T09:44:06.420Z,24.70
2018-06-03T09:46:34.811Z,24.80
2018-06-03T09:49:05.064Z,24.80
2018-06-03T09:51:33.564Z,24.80
2018-06-03T09:56:30.183Z,24.90
2018-06-03T09:58:58.565Z,24.90
2018-06-03T10:01:27.379Z,24.90
2018-06-03T10:03:56.038Z,25.00
2018-06-03T10:06:24.627Z,25.00
2018-06-03T10:08:52.999Z,25.10
2018-06-03T10:11:21.695Z,25.10
2018-06-03T10:13:50.232Z,25.20
2018-06-03T10:16:18.804Z,25.20
2018-06-03T10:18:47.294Z,25.30
2018-06-03T10:21:16.002Z,25.40
2018-06-03T10:23:44.469Z,25.50
2018-06-03T10:26:12.953Z,25.60
2018-06-03T10:28:41.532Z,25.70
2018-06-03T10:31:10.219Z,25.80
2018-06-03T10:33:38.864Z,25.90
2018-06-03T10:36:07.913Z,26.00
2018-06-03T10:38:36.349Z,26.20
2018-06-03T10:41:04.864Z,26.40
2018-06-03T10:43:33.308Z,26.60
2018-06-03T10:46:02.188Z,26.80
2018-06-03T10:48:30.672Z,26.90
2018-06-03T10:50:59.122Z,27.00
2018-06-03T10:53:27.543Z,27.20
2018-06-03T10:55:55.978Z,27.30
2018-06-03T10:58:24.443Z,27.50
2018-06-03T11:00:52.851Z,27.50
2018-06-03T11:03:21.366Z,27.60
2018-06-03T11:05:49.770Z,27.70
2018-06-03T11:08:18.269Z,27.70
2018-06-03T11:10:46.868Z,27.80
2018-06-03T11:15:43.352Z,27.80
2018-06-03T11:18:11.868Z,27.80
2018-06-03T11:20:40.478Z,27.80
2018-06-03T11:23:08.878Z,28.00
2018-06-03T11:25:37.239Z,28.20
2018-06-03T11:28:05.627Z,28.20
2018-06-03T11:30:34.111Z,28.30
2018-06-03T11:33:02.550Z,28.40
2018-06-03T11:35:31.043Z,28.60
2018-06-03T11:37:59.603Z,28.80
2018-06-03T11:40:28.202Z,29.00
2018-06-03T11:42:56.775Z,29.10
2018-06-03T11:45:25.238Z,29.30
2018-06-03T11:47:53.681Z,29.40
2018-06-03T11:50:22.144Z,29.60
2018-06-03T11:52:50.597Z,29.70
2018-06-03T11:55:18.995Z,29.80
2018-06-03T11:57:58.696Z,29.90
2018-06-03T12:00:27.138Z,30.00
2018-06-03T12:02:55.671Z,30.10
2018-06-03T12:05:24.209Z,30.10
2018-06-03T12:07:52.774Z,30.20
2018-06-03T12:10:21.306Z,30.30
2018-06-03T12:12:49.914Z,30.40
2018-06-03T12:15:18.347Z,30.40
2018-06-03T12:17:46.810Z,30.60
2018-06-03T12:20:15.272Z,30.80
2018-06-03T12:22:43.759Z,30.90
2018-06-03T12:25:12.219Z,30.70
2018-06-03T12:27:40.668Z,30.50
2018-06-03T12:30:09.110Z,30.40
2018-06-03T12:32:37.631Z,30.10
2018-06-03T12:35:06.151Z,30.00
2018-06-03T12:37:34.599Z,29.90
2018-06-03T12:40:03.191Z,29.90
2018-06-03T12:42:31.871Z,29.80
2018-06-03T12:45:00.628Z,29.70
2018-06-03T12:47:29.227Z,29.60
2018-06-03T12:49:58.166Z,29.60
2018-06-03T12:52:26.708Z,29.60
2018-06-03T12:54:55.122Z,29.60
2018-06-03T12:57:23.562Z,29.70
2018-06-03T12:59:52.104Z,29.80
2018-06-03T13:02:20.614Z,30.00
2018-06-03T13:04:49.100Z,30.20
2018-06-03T13:07:17.895Z,30.20
2018-06-03T13:09:46.682Z,30.40
2018-06-03T13:12:15.178Z,30.40
2018-06-03T13:14:43.803Z,30.40
2018-06-03T13:17:12.381Z,30.50
2018-06-03T13:19:40.889Z,30.50
2018-06-03T13:22:09.270Z,30.50
2018-06-03T13:24:37.840Z,30.40
2018-06-03T13:27:06.520Z,30.30
2018-06-03T13:29:35.235Z,30.50
2018-06-03T13:32:03.656Z,30.70
2018-06-03T13:34:32.224Z,30.80
2018-06-03T13:37:00.625Z,30.90
2018-06-03T13:39:29.131Z,30.90
2018-06-03T13:41:57.504Z,30.90
2018-06-03T13:44:26.292Z,31.00
2018-06-03T13:49:23.095Z,31.10
2018-06-03T13:51:51.644Z,31.20
2018-06-03T13:54:20.093Z,31.30
2018-06-03T13:56:48.794Z,31.40
2018-06-03T13:59:17.335Z,31.50
2018-06-03T14:01:45.843Z,31.60
2018-06-03T14:04:14.530Z,31.80
2018-06-03T14:06:43.122Z,31.90
2018-06-03T14:09:11.821Z,32.10
2018-06-03T14:11:40.547Z,32.10
2018-06-03T14:14:09.103Z,32.20
2018-06-03T14:16:37.608Z,32.30
2018-06-03T14:19:06.158Z,32.30
2018-06-03T14:21:35.165Z,32.50
2018-06-03T14:24:04.170Z,32.60
2018-06-03T14:26:33.033Z,32.60
2018-06-03T14:29:01.517Z,32.70
2018-06-03T14:31:30.237Z,32.70
2018-06-03T14:33:58.727Z,32.70
2018-06-03T14:36:27.707Z,32.80
2018-06-03T14:38:56.655Z,32.70
2018-06-03T14:43:53.441Z,32.80
2018-06-03T14:46:22.525Z,32.90
2018-06-03T14:48:51.080Z,33.00
2018-06-03T14:51:19.516Z,32.90
2018-06-03T14:53:48.174Z,33.00
2018-06-03T14:56:17.314Z,33.00
2018-06-03T14:58:45.950Z,33.00
2018-06-03T15:01:14.601Z,33.10
2018-06-03T15:03:43.275Z,33.20
2018-06-03T15:06:12.260Z,33.10
2018-06-03T15:08:40.708Z,33.00
2018-06-03T15:11:09.614Z,32.80
2018-06-03T15:13:39.185Z,32.70
2018-06-03T15:16:07.968Z,32.60
2018-06-03T15:18:36.657Z,32.40
2018-06-03T15:23:33.462Z,32.30
2018-06-03T15:26:02.182Z,32.30
2018-06-03T15:28:30.850Z,32.30
2018-06-03T15:30:59.492Z,32.30
2018-06-03T15:33:28.738Z,32.30
2018-06-03T15:35:57.623Z,32.30
2018-06-03T15:38:26.063Z,32.30
2018-06-03T15:40:54.520Z,32.20
2018-06-03T15:43:23.259Z,32.10
2018-06-03T15:45:52.133Z,32.10
2018-06-03T15:48:20.858Z,31.90
2018-06-03T15:50:49.688Z,32.00
2018-06-03T15:53:18.548Z,32.00
2018-06-03T15:55:50.150Z,32.00
2018-06-03T15:58:19.200Z,32.10
2018-06-03T16:00:48.558Z,32.10
2018-06-03T16:03:17.442Z,32.10
2018-06-03T16:05:45.844Z,32.10
2018-06-03T16:10:42.922Z,32.00
2018-06-03T16:13:11.774Z,32.00
2018-06-03T16:15:40.279Z,32.00
2018-06-03T16:18:08.799Z,32.10
2018-06-03T16:20:37.756Z,32.10
2018-06-03T16:23:06.218Z,32.10
2018-06-03T16:25:35.161Z,32.10
2018-06-03T16:28:03.887Z,32.10
2018-06-03T16:30:33.078Z,32.10
2018-06-03T16:33:01.577Z,32.10
2018-06-03T16:35:30.559Z,32.10
2018-06-03T16:37:59.099Z,32.10
2018-06-03T16:40:27.689Z,32.10
2018-06-03T16:42:56.776Z,32.00
2018-06-03T16:45:25.660Z,31.90
2018-06-03T16:47:54.119Z,31.90
2018-06-03T16:50:22.649Z,31.80
2018-06-03T16:52:51.306Z,31.70
2018-06-03T16:55:20.026Z,31.70
2018-06-03T16:57:48.643Z,31.60
2018-06-03T17:00:17.254Z,31.60
2018-06-03T17:02:46.149Z,31.50
2018-06-03T17:05:15.171Z,31.50
2018-06-03T17:07:43.911Z,31.50
2018-06-03T17:10:12.490Z,31.50
2018-06-03T17:12:41.168Z,31.40
2018-06-03T17:15:09.839Z,31.30
2018-06-03T17:17:39.031Z,31.20
2018-06-03T17:20:07.883Z,31.10
2018-06-03T17:22:36.473Z,31.00
2018-06-03T17:25:05.619Z,30.90
2018-06-03T17:27:34.106Z,30.80
2018-06-03T17:30:02.589Z,30.70
2018-06-03T17:32:31.523Z,30.70
2018-06-03T17:35:00.346Z,30.60
2018-06-03T17:37:28.792Z,30.50
2018-06-03T17:39:57.332Z,30.40
2018-06-03T17:42:25.955Z,30.30
2018-06-03T17:44:54.361Z,30.20
2018-06-03T17:47:22.854Z,30.10
2018-06-03T17:49:51.333Z,30.00
2018-06-03T17:52:19.835Z,29.90
2018-06-03T17:54:48.284Z,29.70
2018-06-03T17:57:16.886Z,29.60
2018-06-03T17:59:45.513Z,29.50
2018-06-03T18:02:14.131Z,29.40
2018-06-03T18:04:42.645Z,29.30
2018-06-03T18:07:11.110Z,29.20
2018-06-03T18:09:39.650Z,29.10
2018-06-03T18:12:08.155Z,29.10
2018-06-03T18:14:36.567Z,29.00
2018-06-03T18:17:05.346Z,29.00
2018-06-03T18:19:33.961Z,28.90
2018-06-03T18:22:02.486Z,28.90
2018-06-03T18:24:31.106Z,28.80
2018-06-03T18:26:59.549Z,28.80
2018-06-03T18:29:28.032Z,28.70
2018-06-03T18:31:56.718Z,28.70
2018-06-03T18:34:25.300Z,28.70
2018-06-03T18:36:53.807Z,28.60
2018-06-03T18:39:22.287Z,28.60
2018-06-03T18:41:50.781Z,28.50
2018-06-03T18:44:19.490Z,28.50
2018-06-03T18:46:47.973Z,28.50
2018-06-03T18:49:16.360Z,28.40
2018-06-03T18:51:44.934Z,28.40
2018-06-03T18:56:41.911Z,28.30
2018-06-03T18:59:11.234Z,28.20
2018-06-03T19:01:40.737Z,28.20
2018-06-03T19:04:10.239Z,28.10
2018-06-03T19:06:38.838Z,28.10
2018-06-03T19:09:08.181Z,28.00
2018-06-03T19:11:37.153Z,28.00
2018-06-03T19:14:05.658Z,27.90
2018-06-03T19:16:34.307Z,27.80
2018-06-03T19:19:03.292Z,27.70
2018-06-03T19:21:32.089Z,27.70
2018-06-03T19:24:00.614Z,27.70
2018-06-03T19:26:29.127Z,27.60
2018-06-03T19:28:57.847Z,27.50
2018-06-03T19:31:27.266Z,27.50
2018-06-03T19:33:55.889Z,27.40
2018-06-03T19:36:24.367Z,27.40
2018-06-03T19:38:52.774Z,27.30
2018-06-03T19:41:21.292Z,27.20
2018-06-03T19:43:49.670Z,27.20
2018-06-03T19:46:18.157Z,27.10
2018-06-03T19:48:46.804Z,27.00
2018-06-03T19:51:15.268Z,27.00
2018-06-03T19:53:43.848Z,26.90
2018-06-03T19:56:12.294Z,26.90
2018-06-03T19:58:40.809Z,26.80
2018-06-03T20:01:09.360Z,26.80
2018-06-03T20:03:37.850Z,26.70
2018-06-03T20:06:06.320Z,26.60
2018-06-03T20:08:34.857Z,26.60
2018-06-03T20:11:03.340Z,26.60
2018-06-03T20:13:31.903Z,26.50
2018-06-03T20:16:00.446Z,26.40
2018-06-03T20:18:28.939Z,26.40
2018-06-03T20:20:57.521Z,26.40
2018-06-03T20:23:25.975Z,26.30
2018-06-03T20:25:54.406Z,26.30
2018-06-03T20:28:22.831Z,26.30
2018-06-03T20:30:51.510Z,26.20
2018-06-03T20:33:20.341Z,26.10
2018-06-03T20:35:50.612Z,26.10
2018-06-03T20:38:19.006Z,26.00
2018-06-03T20:51:04.508Z,25.90
2018-06-03T20:53:32.930Z,25.90
2018-06-03T21:11:27.171Z,25.60
2018-06-03T21:26:52.760Z,25.30
2018-06-03T21:29:21.118Z,25.30
2018-06-03T21:31:49.541Z,25.30
2018-06-03T21:34:17.962Z,25.20
2018-06-03T21:36:46.515Z,25.10
2018-06-03T21:39:15.200Z,25.10
2018-06-03T21:41:43.706Z,25.00
2018-06-03T21:44:12.230Z,25.00
2018-06-03T21:46:40.703Z,25.00
2018-06-03T21:49:09.145Z,24.90
2018-06-03T21:51:37.762Z,24.90
2018-06-03T21:54:06.251Z,24.90
2018-06-03T21:56:34.799Z,24.80
2018-06-03T21:59:03.187Z,24.70
2018-06-03T22:01:31.740Z,24.60
2018-06-03T22:04:00.177Z,24.60
2018-06-03T22:06:28.799Z,24.60
2018-06-03T22:08:57.298Z,24.60
2018-06-03T22:11:25.703Z,24.60
2018-06-03T22:13:54.060Z,24.60
2018-06-03T22:16:22.518Z,24.50
2018-06-03T22:18:50.897Z,24.50
2018-06-03T22:21:19.314Z,24.50
2018-06-03T22:23:47.666Z,24.50
2018-06-03T22:26:16.170Z,24.50
2018-06-03T22:28:44.521Z,24.50
2018-06-03T22:31:12.986Z,24.50
2018-06-03T22:33:41.506Z,24.40
2018-06-03T22:36:09.959Z,24.40
2018-06-03T22:38:38.649Z,24.40
2018-06-03T22:41:07.162Z,24.30
2018-06-03T22:43:35.663Z,24.30
2018-06-03T22:46:04.177Z,24.30
2018-06-03T22:48:32.563Z,24.30
2018-06-03T22:51:01.050Z,24.30
2018-06-03T22:53:29.643Z,24.20
2018-06-03T22:55:58.110Z,24.20
2018-06-03T22:58:26.580Z,24.20
2018-06-03T23:00:54.988Z,24.20
2018-06-03T23:03:23.353Z,24.20
2018-06-03T23:05:51.851Z,24.20
2018-06-03T23:08:20.306Z,24.20
2018-06-03T23:10:48.808Z,24.10
2018-06-03T23:13:17.389Z,24.10
2018-06-03T23:15:45.899Z,24.10
2018-06-03T23:18:14.320Z,24.10
2018-06-03T23:20:42.948Z,24.10
2018-06-03T23:23:11.313Z,24.00
2018-06-03T23:25:40.103Z,24.00
2018-06-03T23:28:08.491Z,24.00
2018-06-03T23:30:36.899Z,24.00
2018-06-03T23:33:05.289Z,24.00
2018-06-03T23:35:33.752Z,23.90
2018-06-03T23:38:02.134Z,23.90
2018-06-03T23:40:30.641Z,23.90
2018-06-03T23:42:59.039Z,23.90
2018-06-03T23:45:27.507Z,23.80
2018-06-03T23:47:55.892Z,23.80
2018-06-03T23:50:24.309Z,23.80
2018-06-03T23:52:52.644Z,23.80
2018-06-03T23:55:21.002Z,23.70
2018-06-03T23:57:49.397Z,23.70
